createdAt,value
2018-02-27T00:01:14.828Z,98564.94
2018-02-27T00:03:43.096Z,98564.25
2018-02-27T00:06:11.376Z,98560.51
2018-02-27T00:08:39.655Z,98569.25
2018-02-27T00:11:07.920Z,98562.23
2018-02-27T00:13:36.208Z,98558.88
2018-02-27T00:16:04.473Z,98564.94
2018-02-27T00:18:32.745Z,98568.52
2018-02-27T00:21:01.024Z,98567.35
2018-02-27T00:23:29.293Z,98567.27
2018-02-27T00:25:57.578Z,98562.06
2018-02-27T00:28:25.853Z,98565.24
2018-02-27T00:30:54.132Z,98560.94
2018-02-27T00:33:22.505Z,98565.05
2018-02-27T00:35:50.769Z,98565.41
2018-02-27T00:38:19.054Z,98560.09
2018-02-27T00:40:47.333Z,98561.81
2018-02-27T00:43:15.614Z,98558.85
2018-02-27T00:45:43.886Z,98556.81
2018-02-27T00:48:12.147Z,98556.92
2018-02-27T00:50:40.433Z,98552.48
2018-02-27T00:53:08.717Z,98556.50
2018-02-27T00:55:37.000Z,98557.91
2018-02-27T00:58:05.284Z,98565.20
2018-02-27T01:00:33.643Z,98554.22
2018-02-27T01:03:01.934Z,98556.95
2018-02-27T01:05:30.192Z,98558.27
2018-02-27T01:07:58.461Z,98553.91
2018-02-27T01:10:26.745Z,98548.97
2018-02-27T01:12:55.004Z,98547.05
2018-02-27T01:15:23.284Z,98542.29
2018-02-27T01:17:51.547Z,98553.77
2018-02-27T01:20:19.825Z,98545.44
2018-02-27T01:22:48.885Z,98546.91
2018-02-27T01:25:17.328Z,98545.11
2018-02-27T01:27:45.603Z,98537.81
2018-02-27T01:30:13.880Z,98534.17
2018-02-27T01:32:42.157Z,98522.16
2018-02-27T01:35:10.448Z,98527.64
2018-02-27T01:37:38.720Z,98519.00
2018-02-27T01:40:07.001Z,98525.28
2018-02-27T01:42:35.280Z,98523.45
2018-02-27T01:45:04.356Z,98516.70
2018-02-27T01:47:32.644Z,98519.49
2018-02-27T01:50:00.940Z,98523.98
2018-02-27T01:52:29.287Z,98516.48
2018-02-27T01:54:57.572Z,98516.77
2018-02-27T01:57:25.842Z,98519.09
2018-02-27T01:59:54.140Z,98513.91
2018-02-27T02:02:22.403Z,98509.93
2018-02-27T02:04:50.696Z,98505.22
2018-02-27T02:07:18.963Z,98499.86
2018-02-27T02:09:47.240Z,98496.66
2018-02-27T02:12:15.512Z,98501.30
2018-02-27T02:14:43.780Z,98497.41
2018-02-27T02:17:12.148Z,98481.98
2018-02-27T02:19:40.436Z,98487.89
2018-02-27T02:22:08.717Z,98485.17
2018-02-27T02:24:36.990Z,98479.95
2018-02-27T02:27:05.269Z,98476.91
2018-02-27T02:29:33.569Z,98472.66
2018-02-27T02:32:01.833Z,98466.69
2018-02-27T02:34:30.135Z,98475.59
2018-02-27T02:36:59.172Z,98469.22
2018-02-27T02:39:27.469Z,98470.64
2018-02-27T02:55:37.839Z,98472.78
2018-02-27T02:58:06.134Z,98465.17
2018-02-27T03:00:35.273Z,98464.23
2018-02-27T03:03:03.559Z,98468.91
2018-02-27T03:05:31.824Z,98470.81
2018-02-27T03:08:00.123Z,98468.00
2018-02-27T03:10:28.416Z,98466.50
2018-02-27T03:12:56.692Z,98468.30
2018-02-27T03:15:24.968Z,98465.31
2018-02-27T03:17:53.234Z,98466.08
2018-02-27T03:20:21.533Z,98459.72
2018-02-27T03:22:49.792Z,98459.61
2018-02-27T03:25:18.067Z,98460.28
2018-02-27T03:27:46.346Z,98455.20
2018-02-27T03:30:14.644Z,98452.80
2018-02-27T03:32:43.691Z,98452.27
2018-02-27T03:35:11.972Z,98445.89
2018-02-27T03:37:40.236Z,98446.94
2018-02-27T03:40:08.516Z,98438.28
2018-02-27T03:42:36.787Z,98434.38
2018-02-27T03:45:06.304Z,98435.23
2018-02-27T03:47:34.576Z,98427.82
2018-02-27T03:50:02.841Z,98429.77
2018-02-27T03:52:31.119Z,98422.61
2018-02-27T03:54:59.391Z,98422.70
2018-02-27T03:57:27.673Z,98424.17
2018-02-27T03:59:56.048Z,98423.67
2018-02-27T04:02:24.311Z,98427.87
2018-02-27T04:04:52.592Z,98425.80
2018-02-27T04:07:20.855Z,98425.22
2018-02-27T04:09:49.134Z,98429.24
2018-02-27T04:12:17.404Z,98423.86
2018-02-27T04:14:45.679Z,98429.69
2018-02-27T04:17:13.972Z,98421.23
2018-02-27T04:19:42.236Z,98426.95
2018-02-27T04:22:10.511Z,98428.49
2018-02-27T04:24:38.787Z,98428.71
2018-02-27T04:27:07.061Z,98428.34
2018-02-27T04:29:35.334Z,98425.95
2018-02-27T04:32:04.433Z,98436.66
2018-02-27T04:34:32.704Z,98429.44
2018-02-27T04:37:01.724Z,98430.05
2018-02-27T04:39:30.015Z,98438.23
2018-02-27T04:41:58.272Z,98441.50
2018-02-27T04:44:26.648Z,98433.94
2018-02-27T04:46:54.908Z,98442.53
2018-02-27T04:49:23.175Z,98438.66
2018-02-27T04:51:52.227Z,98442.67
2018-02-27T04:54:20.489Z,98441.58
2018-02-27T04:56:48.789Z,98441.96
2018-02-27T04:59:17.056Z,98444.83
2018-02-27T05:01:45.401Z,98436.86
2018-02-27T05:04:13.701Z,98435.22
2018-02-27T05:06:42.052Z,98434.66
2018-02-27T05:09:10.339Z,98443.50
2018-02-27T05:11:38.626Z,98440.15
2018-02-27T05:14:06.911Z,98434.57
2018-02-27T05:16:35.200Z,98435.55
2018-02-27T05:19:03.544Z,98431.92
2018-02-27T05:21:31.879Z,98426.61
2018-02-27T05:24:00.915Z,98428.16
2018-02-27T05:26:29.215Z,98425.35
2018-02-27T05:28:57.488Z,98424.88
2018-02-27T05:31:25.788Z,98427.41
2018-02-27T05:33:54.050Z,98428.09
2018-02-27T05:36:22.319Z,98431.55
2018-02-27T05:38:50.621Z,98432.95
2018-02-27T05:41:18.888Z,98432.95
2018-02-27T05:43:47.170Z,98434.45
2018-02-27T05:46:15.447Z,98430.87
2018-02-27T05:48:43.708Z,98437.20
2018-02-27T05:51:12.004Z,98426.81
2018-02-27T05:53:41.028Z,98434.69
2018-02-27T05:56:09.316Z,98425.84
2018-02-27T05:58:37.573Z,98438.37
2018-02-27T06:01:05.839Z,98438.86
2018-02-27T06:03:34.890Z,98436.22
2018-02-27T06:06:03.152Z,98434.02
2018-02-27T06:08:31.414Z,98440.45
2018-02-27T06:10:59.689Z,98435.12
2018-02-27T06:13:27.948Z,98434.12
2018-02-27T06:15:56.208Z,98432.83
2018-02-27T06:18:25.265Z,98430.10
2018-02-27T06:20:54.325Z,98435.09
2018-02-27T06:23:22.597Z,98433.48
2018-02-27T06:25:50.886Z,98431.63
2018-02-27T06:28:19.147Z,98435.89
2018-02-27T06:30:47.421Z,98431.80
2018-02-27T06:33:15.688Z,98436.95
2018-02-27T06:35:43.964Z,98433.20
2018-02-27T06:38:12.254Z,98436.63
2018-02-27T06:40:40.520Z,98441.02
2018-02-27T06:43:08.787Z,98438.37
2018-02-27T06:45:37.081Z,98437.57
2018-02-27T06:48:05.346Z,98439.72
2018-02-27T06:50:33.620Z,98446.79
2018-02-27T06:53:01.905Z,98438.66
2018-02-27T06:55:30.192Z,98444.73
2018-02-27T06:57:58.458Z,98448.59
2018-02-27T07:00:26.793Z,98439.44
2018-02-27T07:02:55.941Z,98438.67
2018-02-27T07:05:24.213Z,98438.28
2018-02-27T07:07:52.498Z,98443.85
2018-02-27T07:10:20.927Z,98439.98
2018-02-27T07:12:49.148Z,98444.81
2018-02-27T07:15:17.431Z,98444.94
2018-02-27T07:17:45.767Z,98436.73
2018-02-27T07:20:14.803Z,98445.87
2018-02-27T07:22:43.173Z,98437.84
2018-02-27T07:25:11.470Z,98435.48
2018-02-27T07:27:39.760Z,98431.02
2018-02-27T07:30:08.078Z,98433.61
2018-02-27T07:32:36.295Z,98430.03
2018-02-27T07:35:04.584Z,98433.47
2018-02-27T07:37:32.868Z,98438.44
2018-02-27T07:40:01.202Z,98436.27
2018-02-27T07:42:29.480Z,98434.11
2018-02-27T07:44:57.754Z,98432.45
2018-02-27T07:47:26.028Z,98430.57
2018-02-27T07:49:54.312Z,98440.88
2018-02-27T07:52:22.585Z,98436.95
2018-02-27T07:54:50.852Z,98440.66
2018-02-27T07:57:19.129Z,98440.30
2018-02-27T07:59:47.390Z,98439.88
2018-02-27T08:02:15.684Z,98438.33
2018-02-27T08:04:43.969Z,98440.83
2018-02-27T08:07:12.236Z,98441.63
2018-02-27T08:09:41.271Z,98432.98
2018-02-27T08:12:09.563Z,98439.27
2018-02-27T08:14:38.603Z,98435.49
2018-02-27T08:17:06.855Z,98436.13
2018-02-27T08:19:35.140Z,98431.54
2018-02-27T08:22:03.444Z,98431.35
2018-02-27T08:24:31.728Z,98427.16
2018-02-27T08:27:00.081Z,98423.11
2018-02-27T08:29:28.339Z,98425.94
2018-02-27T08:31:56.604Z,98422.94
2018-02-27T08:34:25.656Z,98426.80
2018-02-27T08:36:53.911Z,98415.20
2018-02-27T08:39:22.186Z,98417.97
2018-02-27T08:41:50.476Z,98412.86
2018-02-27T08:44:18.768Z,98403.27
2018-02-27T08:46:47.032Z,98414.73
2018-02-27T08:49:15.312Z,98413.08
2018-02-27T08:51:43.580Z,98405.91
2018-02-27T08:54:11.934Z,98405.53
2018-02-27T08:56:40.210Z,98406.88
2018-02-27T08:59:08.464Z,98402.27
2018-02-27T09:01:37.511Z,98402.98
2018-02-27T09:04:05.787Z,98403.54
2018-02-27T09:06:34.090Z,98394.30
2018-02-27T09:09:03.123Z,98387.99
2018-02-27T09:11:31.424Z,98388.98
2018-02-27T09:13:59.692Z,98382.98
2018-02-27T09:16:27.955Z,98387.91
2018-02-27T09:18:56.229Z,98381.38
2018-02-27T09:21:24.484Z,98377.59
2018-02-27T09:23:52.787Z,98373.55
2018-02-27T09:26:21.868Z,98366.63
2018-02-27T09:28:50.136Z,98364.97
2018-02-27T09:31:18.432Z,98365.45
2018-02-27T09:33:46.708Z,98364.78
2018-02-27T09:36:14.964Z,98358.88
2018-02-27T09:38:43.282Z,98358.32
2018-02-27T09:41:11.636Z,98354.53
2018-02-27T09:43:39.906Z,98365.05
2018-02-27T09:46:08.172Z,98361.05
2018-02-27T09:48:36.468Z,98357.17
2018-02-27T09:51:04.738Z,98352.90
2018-02-27T09:53:33.764Z,98360.75
2018-02-27T09:56:02.047Z,98356.33
2018-02-27T09:58:30.313Z,98353.00
2018-02-27T10:00:58.590Z,98357.88
2018-02-27T10:03:26.865Z,98358.17
2018-02-27T10:05:55.221Z,98353.44
2018-02-27T10:08:23.501Z,98357.45
2018-02-27T10:10:51.882Z,98350.56
2018-02-27T10:13:20.148Z,98350.33
2018-02-27T10:15:48.404Z,98345.73
2018-02-27T10:18:16.700Z,98348.29
2018-02-27T10:20:45.801Z,98345.12
2018-02-27T10:23:14.061Z,98353.09
2018-02-27T10:25:42.342Z,98354.17
2018-02-27T10:28:10.608Z,98350.45
2018-02-27T10:30:38.898Z,98348.92
2018-02-27T10:33:07.175Z,98349.88
2018-02-27T10:35:35.559Z,98347.74
2018-02-27T10:38:03.836Z,98348.50
2018-02-27T10:40:32.117Z,98336.41
2018-02-27T10:43:00.376Z,98351.21
2018-02-27T10:45:28.636Z,98348.31
2018-02-27T10:47:56.936Z,98338.73
2018-02-27T10:50:25.214Z,98332.37
2018-02-27T10:52:53.489Z,98334.48
2018-02-27T10:55:21.764Z,98340.15
2018-02-27T10:57:50.037Z,98332.36
2018-02-27T11:00:23.776Z,98326.48
2018-02-27T11:02:52.053Z,98325.52
2018-02-27T11:05:20.316Z,98319.88
2018-02-27T11:07:48.588Z,98315.66
2018-02-27T11:10:16.861Z,98318.59
2018-02-27T11:12:45.221Z,98320.75
2018-02-27T11:15:13.503Z,98310.23
2018-02-27T11:17:41.763Z,98307.53
2018-02-27T11:20:10.028Z,98301.75
2018-02-27T11:22:39.150Z,98304.85
2018-02-27T11:25:07.428Z,98307.70
2018-02-27T11:27:35.679Z,98303.76
2018-02-27T11:30:03.960Z,98296.14
2018-02-27T11:32:32.218Z,98300.29
2018-02-27T11:35:01.345Z,98300.34
2018-02-27T11:37:29.720Z,98298.42
2018-02-27T11:39:57.976Z,98290.33
2018-02-27T11:42:26.273Z,98290.77
2018-02-27T11:44:54.575Z,98289.42
2018-02-27T11:47:22.835Z,98283.03
2018-02-27T11:49:51.097Z,98281.03
2018-02-27T11:52:19.384Z,98281.03
2018-02-27T11:54:47.638Z,98273.06
2018-02-27T11:57:15.945Z,98273.09
2018-02-27T11:59:44.228Z,98278.80
2018-02-27T12:02:12.513Z,98277.80
2018-02-27T12:04:40.780Z,98277.00
2018-02-27T12:07:09.073Z,98276.69
2018-02-27T12:09:37.336Z,98273.02
2018-02-27T12:12:05.592Z,98273.05
2018-02-27T12:14:33.856Z,98272.45
2018-02-27T12:17:02.150Z,98266.31
2018-02-27T12:19:30.400Z,98265.36
2018-02-27T12:21:58.680Z,98256.22
2018-02-27T12:24:26.936Z,98256.77
2018-02-27T12:26:55.957Z,98257.05
2018-02-27T12:29:24.232Z,98254.17
2018-02-27T12:31:52.499Z,98260.28
2018-02-27T12:34:20.755Z,98253.59
2018-02-27T12:36:49.792Z,98252.66
2018-02-27T12:39:18.156Z,98249.27
2018-02-27T12:41:46.399Z,98244.24
2018-02-27T12:44:15.431Z,98238.48
2018-02-27T12:46:43.716Z,98239.58
2018-02-27T12:49:11.992Z,98230.72
2018-02-27T12:51:40.356Z,98231.77
2018-02-27T12:54:08.611Z,98235.52
2018-02-27T12:56:36.887Z,98231.87
2018-02-27T12:59:05.912Z,98231.21
2018-02-27T13:01:34.155Z,98224.03
2018-02-27T13:04:02.400Z,98224.33
2018-02-27T13:06:30.736Z,98221.47
2018-02-27T13:08:59.003Z,98215.30
2018-02-27T13:11:27.284Z,98208.77
2018-02-27T13:13:55.552Z,98206.42
2018-02-27T13:16:23.837Z,98201.64
2018-02-27T13:18:52.085Z,98202.25
2018-02-27T13:21:20.363Z,98196.78
2018-02-27T13:23:49.480Z,98197.25
2018-02-27T13:26:17.753Z,98200.75
2018-02-27T13:28:46.025Z,98193.75
2018-02-27T13:31:14.288Z,98197.89
2018-02-27T13:33:43.321Z,98192.05
2018-02-27T13:36:11.683Z,98192.05
2018-02-27T13:38:39.954Z,98190.53
2018-02-27T13:41:08.233Z,98193.80
2018-02-27T13:43:36.504Z,98193.59
2018-02-27T13:46:04.780Z,98188.59
2018-02-27T13:48:33.084Z,98187.85
2018-02-27T13:51:02.162Z,98182.03
2018-02-27T13:53:30.424Z,98184.91
2018-02-27T13:55:58.716Z,98188.34
2018-02-27T13:58:26.943Z,98177.09
2018-02-27T14:00:55.984Z,98182.17
2018-02-27T14:03:24.248Z,98175.67
2018-02-27T14:05:52.530Z,98173.34
2018-02-27T14:08:20.916Z,98176.47
2018-02-27T14:10:49.167Z,98171.34
2018-02-27T14:13:17.457Z,98174.27
2018-02-27T14:15:45.738Z,98175.83
2018-02-27T14:18:13.993Z,98170.30
2018-02-27T14:20:42.305Z,98166.30
2018-02-27T14:23:10.576Z,98165.11
2018-02-27T14:25:38.846Z,98161.20
2018-02-27T14:28:07.103Z,98152.12
2018-02-27T14:30:35.370Z,98149.04
2018-02-27T14:33:03.657Z,98156.19
2018-02-27T14:35:31.927Z,98149.21
2018-02-27T14:38:00.198Z,98146.23
2018-02-27T14:40:28.472Z,98155.27
2018-02-27T14:42:57.509Z,98149.63
2018-02-27T14:45:25.775Z,98151.33
2018-02-27T14:47:54.036Z,98154.47
2018-02-27T14:50:22.283Z,98149.68
2018-02-27T14:52:51.315Z,98145.25
2018-02-27T14:55:19.580Z,98153.07
2018-02-27T14:57:47.845Z,98147.16
2018-02-27T15:00:17.272Z,98149.09
2018-02-27T15:02:45.520Z,98144.28
2018-02-27T15:05:13.803Z,98149.22
2018-02-27T15:07:42.053Z,98150.81
2018-02-27T15:10:11.074Z,98154.86
2018-02-27T15:12:39.340Z,98146.92
2018-02-27T15:15:07.628Z,98142.98
2018-02-27T15:17:35.908Z,98141.20
2018-02-27T15:20:04.168Z,98145.58
2018-02-27T15:22:32.424Z,98137.81
2018-02-27T15:25:01.460Z,98137.81
2018-02-27T15:27:29.715Z,98136.63
2018-02-27T15:29:57.973Z,98137.86
2018-02-27T15:32:27.016Z,98138.94
2018-02-27T15:34:55.265Z,98135.41
2018-02-27T15:37:23.532Z,98134.52
2018-02-27T15:39:51.803Z,98142.56
2018-02-27T15:42:20.821Z,98143.73
2018-02-27T15:44:49.071Z,98140.57
2018-02-27T15:47:18.184Z,98137.07
2018-02-27T15:49:46.487Z,98142.94
2018-02-27T15:52:14.724Z,98143.95
2018-02-27T15:54:42.991Z,98148.52
2018-02-27T15:57:12.016Z,98148.39
2018-02-27T15:59:40.268Z,98144.65
2018-02-27T16:02:08.561Z,98143.65
2018-02-27T16:04:36.856Z,98147.48
2018-02-27T16:07:05.104Z,98145.06
2018-02-27T16:09:33.377Z,98145.77
2018-02-27T16:12:01.679Z,98147.10
2018-02-27T16:14:29.951Z,98150.09
2018-02-27T16:16:58.206Z,98153.59
2018-02-27T16:19:26.485Z,98145.21
2018-02-27T16:21:54.751Z,98154.41
2018-02-27T16:24:23.008Z,98154.19
2018-02-27T16:26:52.157Z,98146.57
2018-02-27T16:29:20.429Z,98142.96
2018-02-27T16:31:48.702Z,98142.19
2018-02-27T16:34:16.976Z,98142.77
2018-02-27T16:36:45.312Z,98136.48
2018-02-27T16:39:14.346Z,98135.67
2018-02-27T16:41:42.622Z,98137.38
2018-02-27T16:44:10.958Z,98138.91
2018-02-27T16:46:40.602Z,98138.29
2018-02-27T16:49:08.941Z,98141.90
2018-02-27T16:51:37.980Z,98142.71
2018-02-27T16:54:06.280Z,98143.16
2018-02-27T16:56:34.620Z,98144.29
2018-02-27T16:59:02.901Z,98145.24
2018-02-27T17:01:31.172Z,98143.49
2018-02-27T17:03:59.463Z,98142.64
2018-02-27T17:06:27.780Z,98155.16
2018-02-27T17:08:56.060Z,98156.94
2018-02-27T17:11:24.344Z,98154.00
2018-02-27T17:13:53.507Z,98155.95
2018-02-27T17:16:21.861Z,98163.38
2018-02-27T17:18:50.281Z,98157.67
2018-02-27T17:21:19.084Z,98162.47
2018-02-27T17:23:47.503Z,98160.48
2018-02-27T17:26:16.091Z,98162.76
2018-02-27T17:28:44.447Z,98169.94
2018-02-27T17:31:14.297Z,98168.73
2018-02-27T17:33:44.136Z,98172.91
2018-02-27T17:36:14.171Z,98182.41
2018-02-27T17:38:44.077Z,98180.72
2018-02-27T17:41:14.259Z,98176.73
2018-02-27T17:43:44.023Z,98180.07
2018-02-27T17:46:13.856Z,98175.88
2018-02-27T17:48:44.466Z,98182.09
2018-02-27T17:51:14.332Z,98175.26
2018-02-27T17:53:44.425Z,98175.44
2018-02-27T17:56:15.089Z,98174.61
2018-02-27T17:58:45.143Z,98175.94
2018-02-27T18:01:15.198Z,98174.02
2018-02-27T18:03:45.972Z,98177.12
2018-02-27T18:06:15.963Z,98176.94
2018-02-27T18:08:45.835Z,98176.30
2018-02-27T18:11:15.694Z,98172.73
2018-02-27T18:13:45.537Z,98175.87
2018-02-27T18:16:15.400Z,98170.65
2018-02-27T18:18:46.089Z,98179.83
2018-02-27T18:21:15.917Z,98170.84
2018-02-27T18:23:45.799Z,98176.84
2018-02-27T18:26:15.816Z,98174.64
2018-02-27T18:28:45.877Z,98179.81
2018-02-27T18:31:15.841Z,98173.63
2018-02-27T18:33:45.966Z,98179.62
2018-02-27T18:36:15.851Z,98179.84
2018-02-27T18:38:45.940Z,98179.69
2018-02-27T18:41:16.035Z,98180.20
2018-02-27T18:43:46.202Z,98178.61
2018-02-27T18:46:16.293Z,98177.98
2018-02-27T18:48:46.338Z,98177.20
2018-02-27T18:51:16.267Z,98176.39
2018-02-27T18:53:45.683Z,98180.80
2018-02-27T18:56:14.966Z,98176.47
2018-02-27T18:58:45.617Z,98178.41
2018-02-27T19:01:17.413Z,98176.05
2018-02-27T19:03:48.196Z,98180.37
2018-02-27T19:06:18.149Z,98179.47
2018-02-27T19:08:48.133Z,98179.98
2018-02-27T19:11:18.060Z,98181.87
2018-02-27T19:13:48.891Z,98176.06
2018-02-27T19:16:18.785Z,98183.77
2018-02-27T19:18:48.983Z,98184.88
2018-02-27T19:21:19.638Z,98183.30
2018-02-27T19:23:49.605Z,98182.81
2018-02-27T19:26:20.017Z,98183.16
2018-02-27T19:28:49.980Z,98193.55
2018-02-27T19:31:20.506Z,98191.38
2018-02-27T19:33:50.788Z,98188.52
2018-02-27T19:36:21.816Z,98182.48
2018-02-27T19:38:51.853Z,98189.66
2018-02-27T19:41:22.514Z,98190.21
2018-02-27T19:43:53.325Z,98191.91
2018-02-27T19:46:23.164Z,98192.59
2018-02-27T19:48:54.583Z,98198.51
2018-02-27T19:51:25.039Z,98198.94
2018-02-27T19:53:55.128Z,98207.88
2018-02-27T19:56:25.121Z,98210.68
2018-02-27T19:58:56.561Z,98210.73
2018-02-27T20:01:26.494Z,98208.38
2018-02-27T20:03:56.594Z,98206.23
2018-02-27T20:06:25.954Z,98206.14
2018-02-27T20:08:56.849Z,98202.26
2018-02-27T20:11:27.267Z,98200.36
2018-02-27T20:13:56.943Z,98204.70
2018-02-27T20:16:27.543Z,98211.20
2018-02-27T20:18:56.904Z,98206.53
2018-02-27T20:21:27.618Z,98204.66
2018-02-27T20:24:02.920Z,98210.66
2018-02-27T20:26:32.856Z,98213.35
2018-02-27T20:29:07.970Z,98215.80
2018-02-27T20:31:38.040Z,98212.11
2018-02-27T20:34:07.462Z,98217.17
2018-02-27T20:36:37.308Z,98222.49
2018-02-27T20:39:29.000Z,98225.87
2018-02-27T20:41:58.889Z,98231.33
2018-02-27T20:44:28.870Z,98230.77
2018-02-27T20:46:59.199Z,98229.91
2018-02-27T20:49:29.396Z,98233.69
2018-02-27T20:51:58.699Z,98236.69
2018-02-27T20:54:28.840Z,98232.87
2018-02-27T20:56:58.887Z,98236.12
2018-02-27T20:59:28.295Z,98234.77
2018-02-27T21:01:57.699Z,98234.08
2018-02-27T21:04:27.246Z,98234.45
2018-02-27T21:06:56.693Z,98236.64
2018-02-27T21:09:26.093Z,98239.66
2018-02-27T21:11:55.438Z,98241.34
2018-02-27T21:14:24.740Z,98240.34
2018-02-27T21:16:54.303Z,98237.91
2018-02-27T21:19:23.596Z,98237.61
2018-02-27T21:21:53.795Z,98246.56
2018-02-27T21:24:23.833Z,98245.23
2018-02-27T21:26:54.026Z,98245.20
2018-02-27T21:29:23.369Z,98243.61
2018-02-27T21:31:52.651Z,98242.66
2018-02-27T21:34:22.820Z,98242.40
2018-02-27T21:36:52.133Z,98243.78
2018-02-27T21:39:21.551Z,98244.49
2018-02-27T21:41:50.890Z,98246.16
2018-02-27T21:44:20.237Z,98247.28
2018-02-27T21:46:49.550Z,98249.41
2018-02-27T21:49:18.943Z,98245.23
2018-02-27T21:51:48.230Z,98249.56
2018-02-27T21:54:18.423Z,98254.97
2018-02-27T21:56:47.688Z,98258.86
2018-02-27T21:59:17.869Z,98255.32
2018-02-27T22:01:47.151Z,98252.00
2018-02-27T22:04:16.326Z,98257.44
2018-02-27T22:06:46.266Z,98259.23
2018-02-27T22:09:15.366Z,98260.93
2018-02-27T22:11:44.484Z,98260.83
2018-02-27T22:14:13.469Z,98272.69
2018-02-27T22:16:42.283Z,98273.81
2018-02-27T22:19:10.893Z,98276.03
2018-02-27T22:21:39.304Z,98275.98
2018-02-27T22:24:07.647Z,98275.05
2018-02-27T22:26:35.928Z,98281.94
2018-02-27T22:29:04.196Z,98281.36
2018-02-27T22:31:33.228Z,98282.17
2018-02-27T22:34:01.493Z,98291.72
2018-02-27T22:36:29.776Z,98286.37
2018-02-27T22:38:58.057Z,98284.13
2018-02-27T22:41:26.343Z,98285.61
2018-02-27T22:43:54.607Z,98284.80
2018-02-27T22:46:22.891Z,98289.04
2018-02-27T22:48:51.156Z,98287.37
2018-02-27T22:51:19.496Z,98286.80
2018-02-27T22:53:47.756Z,98284.70
2018-02-27T22:56:16.038Z,98290.44
2018-02-27T22:58:44.313Z,98296.55
2018-02-27T23:01:12.577Z,98292.52
2018-02-27T23:03:41.616Z,98294.97
2018-02-27T23:06:09.896Z,98294.02
2018-02-27T23:08:38.152Z,98291.58
2018-02-27T23:11:06.416Z,98287.56
2018-02-27T23:13:34.701Z,98286.95
2018-02-27T23:16:02.966Z,98282.83
2018-02-27T23:18:31.228Z,98278.16
2018-02-27T23:21:00.278Z,98289.95
2018-02-27T23:23:28.547Z,98279.11
2018-02-27T23:26:05.390Z,98282.16
2018-02-27T23:28:35.152Z,98284.35
2018-02-27T23:31:03.497Z,98284.11
2018-02-27T23:33:42.839Z,98287.53
2018-02-27T23:36:11.099Z,98288.47
2018-02-27T23:38:39.368Z,98287.23
2018-02-27T23:41:07.648Z,98293.11
2018-02-27T23:43:35.942Z,98288.55
2018-02-27T23:46:04.231Z,98286.24
2018-02-27T23:48:32.490Z,98295.39
2018-02-27T23:51:00.766Z,98290.16
2018-02-27T23:53:29.025Z,98285.71
2018-02-27T23:55:57.297Z,98285.86
2018-02-27T23:58:25.588Z,98292.63
